No data was retrieved for https://query.yahooapis.com/v1/public/yql?q=select+%2A+from+weather.forecast+where+woeid%3D860853&format=xml&u=c

Flood From: 05-06-2020 23:00 Until: 06-06-2020 22:59 warning for: Flood Level: Yellow info button
Rain From: 05-06-2020 07:00 Until: 06-06-2020 16:00 warning for: Rain Level: Yellow info button


warning for Rain more information rain snow radar


Visit our other weather sites:

Template documentation
and downloads

And another site



Nearby METAR Reports

   
EBAW - Antwerp
Updated: 05-06-2020 22:50
Clear  
Clear  
   Wind: SW 3.1 m/s
Wind: SW 3.1 m/s
Temperature: 9°C
Wind Chill: 7°C
Dew Point: 7°C
Humidity: 87%
Barometer: 998 hPa
Visibility: More than 10 km
Cloud details: Clear
EBAW 052050Z AUTO 22006KT CAVOK 09/07 Q0998
EBLG - Liège
Updated: 05-06-2020 22:50
Light Showers, Rain, Partly Cloudy  
Light Showers, Rain, Partly Cloudy  
   Wind: WSW 5.1 m/s
Wind: WSW 5.1 m/s
Temperature: 8°C
Wind Chill: 5°C
Dew Point: 5°C
Humidity: 82%
Barometer: 999 hPa
Clouds: Partly Cloudy
Visibility: More than 10 km
Cloud details: Few Clouds 1600 ft,
Partly Cloudy 4200 ft
EBLG 052050Z 24010KT 9999 -SHRA FEW016TCU SCT042 08/05 Q0999 TEMPO 26015G25KT 4000 SHRA
EBCV - Mons/Bergen
Updated: 05-06-2020 22:55
Heavy Rain, Overcast  
Heavy Rain, Overcast  
   Wind: SSW 6.7 m/s
Wind: SSW 6.7 m/s
Temperature: 9°C
Wind Chill: 6°C
Dew Point: 7°C
Humidity: 87%
Barometer: 999 hPa
Clouds: Overcast
Visibility: 8 km
Cloud details: Few Clouds 1500 ft,
Overcast 4800 ft
EBCV 052055Z AUTO 21013KT 8000 +RA FEW015/// OVC048/// 09/07 Q0999 BLU
EHBK - Maastricht
Updated: 05-06-2020 22:55
Light Showers, Rain, Mostly Cloudy  
Light Showers, Rain, Mostly Cloudy  
   Wind: West 2.6 m/s
Wind: West 2.6 m/s
Temperature: 7°C
Wind Chill: 5°C
Dew Point: 6°C
Humidity: 93%
Barometer: 999 hPa
Clouds: Mostly Cloudy
Visibility: More than 10 km
Cloud details: Few Clouds 200 ft,
Partly Cloudy 1500 ft,
Mostly Cloudy 3300 ft
EHBK 052055Z AUTO 27005KT 200V360 9999 -SHRA FEW002 SCT015CB BKN033 07/06 Q0999 RERA TEMPO 6000 SHRA SCT020CB
ELLX - Luxemburg
Updated: 05-06-2020 22:50
Clear  
Clear  
   Wind: NW 2.1 m/s
Wind: NW 2.1 m/s
Temperature: 6°C
Wind Chill: 4°C
Dew Point: 6°C
Humidity: 100%
Barometer: 1001 hPa
Visibility: More than 10 km
Cloud details: Clear
ELLX 052050Z 31004KT CAVOK 06/06 Q1001 NOSIG
EBOS - Oostende
Updated: 05-06-2020 22:50
Few Clouds  
Few Clouds  
   Wind: SW 4.6 m/s
Wind: SW 4.6 m/s
Temperature: 10°C
Wind Chill: 8°C
Dew Point: 5°C
Humidity: 71%
Barometer: 998 hPa
Clouds: Few Clouds
Visibility: More than 10 km
Cloud details: Few Clouds 2000 ft
EBOS 052050Z 22009KT 9999 FEW020 10/05 Q0998 NOSIG

Script developed by  Saratoga-weather.org Adapted for the template by  Weerstation Leuven

You find our weather info also at:

Weather Underground

Equipment we use:

Weather-station
Davis Vantage Vue

Weather-program
WeatherCat

Provider
one.com

Davis Vantage Vue

WeatherCat

one.com